Aérodrome :
LOGIN :

S'inscrire | Disclaimer

   EN    FR    IT 

 










Légende :    VFR   VFR Marginal   IFR   IFR Intensif   IFR Très Intensif
Visi : 
Plafond : 
>= 8 km
>= 3000ft
5 à 8 km
1000 à 3000 ft
1500m à 5 km
500 à 1000 ft
800 à 1500m
200 à 500 ft
< 800m
< 200 ft
Symboles :   Orages  Brouillard  Fortes neiges  Fortes précipitations  Vent > 20 kt
SIGMETs :   Divers  Orages  Givrage  Turbulence  Onde Orograph.  Cendres Volcan.






- Altitude de l'aérodrome : 122 ft
- Code IATA : TXL


EDDT - Berlin Tegel Int.

DERNIER METAR :
  • 131950Z 18010KT 150V210 CAVOK 20/15 Q1010 NOSIG

METARs EXPIRÉS :
  • 131920Z 16011KT CAVOK 21/15 Q1010 NOSIG
  • 131850Z 16009KT CAVOK 21/15 Q1010 NOSIG
  • 131820Z 17008KT CAVOK 21/15 Q1010 NOSIG
  • 131750Z 17009KT CAVOK 22/16 Q1010 NOSIG
  • 131720Z 15007KT CAVOK 22/16 Q1010 NOSIG

TAF TAF EDDT
Valide du 13 à 18h jusqu'au 14 à 18h UTC


131700Z 1318/1418 16005KT CAVOK
BECMG 1321/1324 22005KT
BECMG 1406/1409 29003KT
BECMG 1415/1418 08005KT



MET'MAP, la Météo Aéronautique d'un coup d'oeil ! - Copyright ORBIFLY Décembre 2007 - Disclaimer

ORBIFLY MET'MAP TEAM :

Programmation & Développement : Alexandra Zaïnal
Conception & Développement : Baudouin d'Aumeries
Co-Programmation & Développement : Marc-Olivier Méhu
Soutien technique & logistique : Manuel Goepfert

Contact : metmap@orbifly.com




SOURCES & CREDITS :

   NOAA